Main page
METAR-TAF:

METAR-TAF

Airports :

AAC Middle Wallop

Middle Wallop, England

latitude: 51-09N, longitude: 001-34W, elevation: 91 m

Current weather observation

The report was made 51 minutes ago, at 08:50 UTC
Wind 2 kt from the Southeast
Temperature 19°C
Humidity 68%
Pressure 1020 hPa
Visibility 10 km or more
Few clouds at a height of 1600 ft

METAR: EGVP 170850Z 13002KT 9999 FEW016 19/13 Q1020 TEMPO SCT018 RMK BLU TEMPO WHT

Time: 10:41 (09:41 UTC)

Forecast

The report was made 1 hour and 44 minutes ago, at 07:57 UTC
Forecast valid from 17 at 09 UTC to 17 at 18 UTC
Wind 3 kt from the Southwest
Visibility 10 km or more
Few clouds at a height of 1800 ft
Temporary
from 17 at 09 UTC to 17 at 10 UTC
Scattered clouds at a height of 1800 ft

TAF: EGVP 170757Z 1709/1718 22003KT 9999 FEW018 TEMPO 1709/1710 SCT018

Weather observations and forecasts of more than 4000 airports (METAR and TAF reports).

The available stations are represented by yellow and red dots on the map.

Hover mouse over dot to see the name of the station.

Then click to see weather observations and forecasts.

To change the map : click on the green buttons with a black cross to zoom in, on the green button with a dash to zoom out, or on the green arrows for adjacent maps.


METAR-TAF: